ADDS METAR Data INFO
IDs: Format: Raw Decoded Include TAF

Data at: 0903 UTC 20 Oct 2017

METAR for:KGNV (Gainesville Rgnl, FL, US)
Text:KGNV 200853Z AUTO 02005KT 10SM 20/18 A3017 RMK AO2 SLP213 T02000178 55003 $
Temperature: 20.0°C ( 68°F)
Dewpoint: 17.8°C ( 64°F) [RH = 87%]
Pressure (altimeter):30.17 inches Hg (1021.8 mb) [Sea level pressure: 1021.3 mb]
Winds:from the NNE (20 degrees) at 6 MPH (5 knots; 2.6 m/s)
Visibility:10 or more sm (16+ km)
QC Flag:automated observation with no human augmentation; SOME DATA ABOVE MAY BE INACCURATE!!!"$" is an indication the sensor requires maintenance.